createdAt,value
2022-08-16T00:02:30.616Z,93442.13
2022-08-16T00:04:59.965Z,93438.00
2022-08-16T00:07:29.096Z,93433.78
2022-08-16T00:09:56.445Z,93422.03
2022-08-16T00:12:24.091Z,93419.50
2022-08-16T00:14:50.799Z,93433.72
2022-08-16T00:17:25.725Z,93453.63
2022-08-16T00:19:55.094Z,93453.91
2022-08-16T00:22:25.790Z,93452.91
2022-08-16T00:24:54.975Z,93423.91
2022-08-16T00:27:22.484Z,93441.97
2022-08-16T00:30:00.769Z,93445.03
2022-08-16T00:32:40.148Z,93448.44
2022-08-16T00:35:14.928Z,93458.63
2022-08-16T00:37:56.213Z,93448.34
2022-08-16T00:40:33.354Z,93447.44
2022-08-16T00:43:05.259Z,93430.41
2022-08-16T00:45:58.295Z,93443.44
2022-08-16T00:48:31.636Z,93431.44
2022-08-16T00:51:07.667Z,93416.72
2022-08-16T00:53:35.428Z,93416.56
2022-08-16T00:56:06.058Z,93408.00
2022-08-16T00:58:36.150Z,93416.84
2022-08-16T01:01:08.377Z,93408.34
2022-08-16T01:03:36.124Z,93443.06
2022-08-16T01:06:40.249Z,93421.84
2022-08-16T01:08:53.803Z,93426.19
2022-08-16T01:11:25.913Z,93438.50
2022-08-16T01:13:58.988Z,93444.47
2022-08-16T01:16:29.014Z,93453.50
2022-08-16T01:19:03.192Z,93460.00
2022-08-16T01:21:47.623Z,93461.16
2022-08-16T01:24:52.398Z,93459.56
2022-08-16T01:27:27.261Z,93430.31
2022-08-16T01:30:19.964Z,93460.69
2022-08-16T01:33:01.899Z,93455.19
2022-08-16T01:35:52.752Z,93419.47
2022-08-16T01:38:41.323Z,93460.56
2022-08-16T01:41:22.486Z,93454.59
2022-08-16T01:43:53.947Z,93444.88
2022-08-16T01:46:46.892Z,93430.53
2022-08-16T01:49:22.371Z,93455.28
2022-08-16T01:51:59.493Z,93424.75
2022-08-16T01:54:30.592Z,93449.22
2022-08-16T01:56:58.551Z,93451.13
2022-08-16T01:59:25.737Z,93425.22
2022-08-16T02:01:59.813Z,93454.31
2022-08-16T02:04:48.301Z,93458.78
2022-08-16T02:07:18.285Z,93437.75
2022-08-16T02:09:57.508Z,93452.13
2022-08-16T02:12:50.244Z,93445.41
2022-08-16T02:15:15.254Z,93420.59
2022-08-16T02:17:43.116Z,93443.09
2022-08-16T02:20:11.563Z,93408.31
2022-08-16T02:22:39.342Z,93446.81
2022-08-16T02:25:10.637Z,93423.69
2022-08-16T02:27:41.021Z,93434.03
2022-08-16T02:30:12.258Z,93419.34
2022-08-16T02:32:59.832Z,93435.50
2022-08-16T02:35:27.871Z,93442.00
2022-08-16T02:37:56.286Z,93413.22
2022-08-16T02:40:24.635Z,93437.13
2022-08-16T02:42:53.274Z,93439.69
2022-08-16T02:45:24.767Z,93427.03
2022-08-16T02:48:00.312Z,93418.44
2022-08-16T02:51:05.858Z,93430.53
2022-08-16T02:53:18.265Z,93418.91
2022-08-16T02:55:50.581Z,93397.81
2022-08-16T02:58:17.407Z,93415.53
2022-08-16T03:00:45.558Z,93406.53
2022-08-16T03:03:17.822Z,93443.25
2022-08-16T03:05:49.863Z,93397.47
2022-08-16T03:08:49.645Z,93423.88
2022-08-16T03:11:16.977Z,93391.06
2022-08-16T03:13:51.582Z,93390.81
2022-08-16T03:16:37.621Z,93422.34
2022-08-16T03:19:07.376Z,93421.50
2022-08-16T03:21:38.168Z,93401.31
2022-08-16T03:24:29.320Z,93385.66
2022-08-16T03:26:53.256Z,93410.81
2022-08-16T03:29:30.364Z,93412.78
2022-08-16T03:31:59.152Z,93383.97
2022-08-16T03:34:26.384Z,93400.84
2022-08-16T03:36:53.318Z,93414.09
2022-08-16T03:39:20.338Z,93372.78
2022-08-16T03:41:50.101Z,93411.50
2022-08-16T03:44:43.406Z,93384.41
2022-08-16T03:47:04.029Z,93406.19
2022-08-16T03:49:36.712Z,93391.31
2022-08-16T03:52:04.091Z,93359.16
2022-08-16T03:54:30.532Z,93398.56
2022-08-16T03:56:58.623Z,93403.56
2022-08-16T03:59:25.942Z,93406.25
2022-08-16T04:01:56.147Z,93390.69
2022-08-16T04:04:30.929Z,93391.44
2022-08-16T04:07:00.496Z,93400.75
2022-08-16T04:09:35.151Z,93390.44
2022-08-16T04:12:10.446Z,93377.06
2022-08-16T04:14:38.714Z,93395.22
2022-08-16T04:17:15.563Z,93385.63
2022-08-16T04:19:58.448Z,93393.19
2022-08-16T04:22:27.695Z,93395.31
2022-08-16T04:24:55.435Z,93380.41
2022-08-16T04:27:31.643Z,93376.19
2022-08-16T04:30:02.767Z,93404.13
2022-08-16T04:32:30.475Z,93407.97
2022-08-16T04:34:56.867Z,93390.13
2022-08-16T04:37:23.343Z,93378.00
2022-08-16T04:39:57.180Z,93410.94
2022-08-16T04:42:26.274Z,93396.97
2022-08-16T04:45:01.964Z,93404.53
2022-08-16T04:47:35.574Z,93415.63
2022-08-16T04:50:34.022Z,93386.22
2022-08-16T04:53:00.708Z,93400.63
2022-08-16T04:55:38.012Z,93412.09
2022-08-16T04:58:43.693Z,93418.50
2022-08-16T05:00:53.951Z,93412.84
2022-08-16T05:03:20.966Z,93420.97
2022-08-16T05:05:58.984Z,93405.97
2022-08-16T05:08:31.184Z,93422.63
2022-08-16T05:11:05.572Z,93413.91
2022-08-16T05:13:41.176Z,93427.91
2022-08-16T05:16:29.932Z,93426.72
2022-08-16T05:18:59.077Z,93399.78
2022-08-16T05:21:28.414Z,93430.91
2022-08-16T05:24:06.945Z,93438.00
2022-08-16T05:26:37.385Z,93429.81
2022-08-16T05:29:07.461Z,93406.75
2022-08-16T05:31:37.658Z,93416.81
2022-08-16T05:34:19.532Z,93403.00
2022-08-16T05:36:47.352Z,93432.81
2022-08-16T05:39:18.118Z,93436.03
2022-08-16T05:41:47.954Z,93433.75
2022-08-16T05:44:23.828Z,93433.50
2022-08-16T05:46:56.383Z,93432.59
2022-08-16T05:49:23.660Z,93431.56
2022-08-16T05:51:50.233Z,93416.28
2022-08-16T05:54:25.257Z,93408.50
2022-08-16T05:56:53.132Z,93414.53
2022-08-16T05:59:20.078Z,93425.94
2022-08-16T06:01:50.610Z,93428.31
2022-08-16T06:04:36.304Z,93435.94
2022-08-16T06:07:07.268Z,93436.38
2022-08-16T06:09:42.695Z,93437.94
2022-08-16T06:12:26.662Z,93428.63
2022-08-16T06:15:01.770Z,93437.91
2022-08-16T06:17:42.738Z,93416.78
2022-08-16T06:20:14.307Z,93420.63
2022-08-16T06:22:40.781Z,93415.06
2022-08-16T06:25:15.198Z,93386.03
2022-08-16T06:27:41.874Z,93405.34
2022-08-16T06:30:23.697Z,93420.31
2022-08-16T06:32:55.608Z,93406.41
2022-08-16T06:35:22.125Z,93413.13
2022-08-16T06:37:51.512Z,93428.97
2022-08-16T06:40:19.222Z,93431.28
2022-08-16T06:42:47.450Z,93425.88
2022-08-16T06:45:14.529Z,93394.63
2022-08-16T06:47:53.072Z,93409.09
2022-08-16T06:50:28.843Z,93437.31
2022-08-16T06:52:58.018Z,93405.00
2022-08-16T06:55:29.917Z,93427.94
2022-08-16T06:58:02.028Z,93435.44
2022-08-16T07:00:35.166Z,93412.66
2022-08-16T07:03:27.168Z,93434.22
2022-08-16T07:05:52.358Z,93418.78
2022-08-16T07:08:20.364Z,93440.56
2022-08-16T07:10:46.899Z,93420.50
2022-08-16T07:13:19.664Z,93435.91
2022-08-16T07:16:01.046Z,93405.72
2022-08-16T07:18:28.248Z,93406.34
2022-08-16T07:20:57.742Z,93387.53
2022-08-16T07:23:38.768Z,93412.84
2022-08-16T07:26:09.728Z,93428.28
2022-08-16T07:28:37.377Z,93429.47
2022-08-16T07:31:05.041Z,93429.78
2022-08-16T07:33:52.226Z,93436.41
2022-08-16T07:36:22.636Z,93416.88
2022-08-16T07:38:50.059Z,93428.56
2022-08-16T07:41:17.042Z,93431.88
2022-08-16T07:43:43.650Z,93417.03
2022-08-16T15:37:54.651Z,93333.47
2022-08-16T15:40:31.958Z,93337.75
2022-08-16T15:43:02.772Z,93367.78
2022-08-16T15:45:54.176Z,93366.25
2022-08-16T15:48:28.635Z,93351.41
2022-08-16T15:50:58.932Z,93369.28
2022-08-16T15:53:27.331Z,93342.63
2022-08-16T15:55:57.964Z,93362.72
2022-08-16T15:58:35.767Z,93339.34
2022-08-16T16:01:06.062Z,93367.81
2022-08-16T16:03:34.557Z,93344.06
2022-08-16T16:06:04.459Z,93348.63
2022-08-16T16:08:32.429Z,93362.59
2022-08-16T16:11:03.645Z,93352.06
2022-08-16T16:13:33.598Z,93334.84
2022-08-16T16:16:06.825Z,93366.94
2022-08-16T16:18:49.099Z,93365.06
2022-08-16T16:21:20.624Z,93345.75
2022-08-16T16:23:53.985Z,93360.69
2022-08-16T16:26:26.834Z,93371.84
2022-08-16T16:29:07.660Z,93338.81
2022-08-16T16:31:59.047Z,93371.06
2022-08-16T16:34:25.780Z,93339.66
2022-08-16T16:36:59.659Z,93359.47
2022-08-16T16:39:26.240Z,93338.44
2022-08-16T16:41:59.489Z,93335.63
2022-08-16T16:44:31.966Z,93336.94
2022-08-16T16:47:00.404Z,93358.84
2022-08-16T16:49:27.007Z,93346.09
2022-08-16T16:52:07.200Z,93346.63
2022-08-16T16:54:35.475Z,93359.03
2022-08-16T16:57:02.289Z,93329.59
2022-08-16T16:59:28.913Z,93340.88
2022-08-16T17:02:38.220Z,93365.81
2022-08-16T17:04:45.947Z,93337.50
2022-08-16T17:07:14.052Z,93340.63
2022-08-16T17:09:41.038Z,93340.22
2022-08-16T17:12:10.136Z,93364.88
2022-08-16T17:14:49.683Z,93368.44
2022-08-16T17:17:16.345Z,93328.78
2022-08-16T17:19:43.173Z,93342.47
2022-08-16T17:22:14.736Z,93348.97
2022-08-16T17:24:44.950Z,93336.81
2022-08-16T17:27:12.156Z,93366.28
2022-08-16T17:29:47.059Z,93345.78
2022-08-16T17:32:33.731Z,93364.59
2022-08-16T17:35:12.265Z,93361.25
2022-08-16T17:37:51.200Z,93366.19
2022-08-16T17:40:25.587Z,93337.75
2022-08-16T17:43:06.583Z,93341.03
2022-08-16T17:45:33.213Z,93341.69
2022-08-16T17:47:59.688Z,93357.19
2022-08-16T17:50:28.993Z,93323.16
2022-08-16T17:52:56.913Z,93351.66
2022-08-16T17:55:32.620Z,93381.31
2022-08-16T17:58:01.152Z,93371.34
2022-08-16T18:00:38.675Z,93373.75
2022-08-16T18:03:11.091Z,93277.97
2022-08-16T18:05:38.990Z,93365.41
2022-08-16T18:08:05.511Z,93348.00
2022-08-16T18:10:36.782Z,93369.00
2022-08-16T18:13:03.745Z,93335.59
2022-08-16T18:15:30.950Z,93361.50
2022-08-16T18:17:57.394Z,93377.66
2022-08-16T18:20:42.924Z,93393.31
2022-08-16T18:23:16.008Z,93384.84
2022-08-16T18:25:50.817Z,93402.22
2022-08-16T18:28:18.716Z,93397.81
2022-08-16T18:30:51.415Z,93403.44
2022-08-16T18:33:21.069Z,93403.59
2022-08-16T18:35:47.619Z,93388.31
2022-08-16T18:38:14.115Z,93377.25
2022-08-16T18:40:41.854Z,93404.88
2022-08-16T18:43:12.566Z,93389.78
2022-08-16T18:45:42.536Z,93424.81
2022-08-16T18:48:10.098Z,93402.38
2022-08-16T18:50:59.945Z,93396.63
2022-08-16T18:53:27.614Z,93420.09
2022-08-16T18:55:57.106Z,93422.28
2022-08-16T18:58:24.253Z,93388.41
2022-08-16T19:00:56.383Z,93403.19
2022-08-16T19:03:30.146Z,93406.19
2022-08-16T19:06:04.849Z,93418.03
2022-08-16T19:08:37.090Z,93415.91
2022-08-16T19:11:06.660Z,93416.81
2022-08-16T19:13:34.957Z,93426.13
2022-08-16T19:16:02.688Z,93428.56
2022-08-16T19:18:36.621Z,93430.91
2022-08-16T19:21:05.287Z,93432.50
2022-08-16T19:23:35.898Z,93435.19
2022-08-16T19:26:07.459Z,93435.19
2022-08-16T19:28:58.624Z,93431.47
2022-08-16T19:31:30.050Z,93438.88
2022-08-16T19:33:57.129Z,93415.00
2022-08-16T19:36:33.898Z,93437.50
2022-08-16T19:39:06.111Z,93436.16
2022-08-16T19:41:41.313Z,93399.00
2022-08-16T19:44:08.766Z,93359.75
2022-08-16T19:46:35.842Z,93351.22
2022-08-16T19:49:03.568Z,93432.94
2022-08-16T19:51:30.072Z,93416.56
2022-08-16T19:53:56.490Z,93441.44
2022-08-16T19:56:25.516Z,93425.41
2022-08-16T20:01:43.110Z,93443.34
2022-08-16T20:04:12.474Z,93440.84
2022-08-16T20:06:39.549Z,93411.03
2022-08-16T20:09:06.877Z,93439.66
2022-08-16T20:11:35.226Z,93434.09
2022-08-16T20:14:02.654Z,93444.34
2022-08-16T20:16:29.728Z,93436.38
2022-08-16T20:18:56.168Z,93423.03
2022-08-16T20:21:22.600Z,93457.47
2022-08-16T20:23:51.608Z,93453.16
2022-08-16T20:26:18.861Z,93425.97
2022-08-16T20:28:52.525Z,93434.56
2022-08-16T20:31:23.648Z,93458.34
2022-08-16T20:33:51.600Z,93446.63
2022-08-16T20:36:18.037Z,93439.09
2022-08-16T20:38:47.155Z,93461.41
2022-08-16T20:41:15.389Z,93450.75
2022-08-16T20:43:42.060Z,93456.63
2022-08-16T20:46:10.261Z,93436.38
2022-08-16T20:48:38.759Z,93453.97
2022-08-16T20:51:06.778Z,93456.56
2022-08-16T20:53:33.922Z,93431.53
2022-08-16T20:56:00.358Z,93470.19
2022-08-16T20:58:26.816Z,93449.44
2022-08-16T21:00:53.419Z,93457.53
2022-08-16T21:03:19.911Z,93471.34
2022-08-16T21:05:46.683Z,93453.91
2022-08-16T21:08:50.673Z,93452.13
2022-08-16T21:11:03.761Z,93478.03
2022-08-16T21:13:30.985Z,93458.66
2022-08-16T21:15:58.224Z,93429.31
2022-08-16T21:18:24.768Z,93461.75
2022-08-16T21:20:51.515Z,93463.91
2022-08-16T21:23:17.968Z,93427.81
2022-08-16T21:25:58.210Z,93437.34
2022-08-16T21:28:40.447Z,93440.53
2022-08-16T21:31:12.583Z,93452.16
2022-08-16T21:33:39.181Z,93435.13
2022-08-16T21:36:06.055Z,93449.56
2022-08-16T21:38:44.733Z,93438.38
2022-08-16T21:41:12.779Z,93466.41
2022-08-16T21:43:39.659Z,93471.59
2022-08-16T21:46:08.754Z,93474.31
2022-08-16T21:48:36.745Z,93433.38
2022-08-16T21:51:09.918Z,93436.72
2022-08-16T21:53:36.829Z,93436.41
2022-08-16T21:56:05.416Z,93463.63
2022-08-16T21:58:32.244Z,93468.00
2022-08-16T22:01:00.077Z,93441.09
2022-08-16T22:03:26.546Z,93453.84
2022-08-16T22:06:11.969Z,93443.84
2022-08-16T22:08:49.256Z,93459.69
2022-08-16T22:11:22.727Z,93445.91
2022-08-16T22:13:56.422Z,93465.56
2022-08-16T22:16:27.037Z,93471.41
2022-08-16T22:18:53.523Z,93452.88
2022-08-16T22:21:20.273Z,93470.81
2022-08-16T22:23:55.155Z,93430.06
2022-08-16T22:26:29.992Z,93445.06
2022-08-16T22:29:01.596Z,93451.28
2022-08-16T22:31:31.002Z,93459.47
2022-08-16T22:33:57.878Z,93443.53
2022-08-16T22:36:28.079Z,93440.13
2022-08-16T22:38:59.501Z,93443.78
2022-08-16T22:41:28.666Z,93470.03
2022-08-16T22:43:55.617Z,93407.16
2022-08-16T22:46:22.041Z,93459.66
2022-08-16T22:48:51.338Z,93440.25
2022-08-16T22:51:19.862Z,93464.97
2022-08-16T22:53:46.498Z,93445.94
2022-08-16T22:56:13.179Z,93465.50
2022-08-16T22:58:39.604Z,93467.06
2022-08-16T23:01:08.147Z,93460.91
2022-08-16T23:03:35.102Z,93460.03
2022-08-16T23:06:01.540Z,93434.53
2022-08-16T23:08:34.996Z,93463.13
2022-08-16T23:11:10.433Z,93457.78
2022-08-16T23:13:37.580Z,93424.13
2022-08-16T23:16:11.158Z,93441.25
2022-08-16T23:18:39.769Z,93442.16
2022-08-16T23:21:09.672Z,93450.47
2022-08-16T23:23:36.817Z,93437.97
2022-08-16T23:26:44.499Z,93436.13
2022-08-16T23:28:52.707Z,93402.00
2022-08-16T23:31:19.426Z,93430.09
2022-08-16T23:33:45.948Z,93405.63
2022-08-16T23:36:13.175Z,93425.81
2022-08-16T23:38:39.841Z,93391.78
2022-08-16T23:41:11.796Z,93423.38
2022-08-16T23:43:43.469Z,93423.97
2022-08-16T23:46:17.138Z,93419.66
2022-08-16T23:49:56.134Z,93396.78
2022-08-16T23:51:31.556Z,93405.22
2022-08-16T23:53:57.987Z,93396.38
2022-08-16T23:56:25.631Z,93397.72
2022-08-16T23:59:02.093Z,93413.75
